Terminal Aerodrome Forecast
Issued by NWS Pittsburgh, PA

Home | Current Version | Previous Version | Text Only | Print | Product List | Glossary On
Versions: 1 2 3 4 5 6 7 8 9 10 11 12 13 14 15 16 17 18 19 20 21 22 23 24 25 26
511
FTUS41 KPBZ 232321
TAFPIT
TAF
KPIT 232321Z 2400/2506 12004KT P6SM FEW250
     FM240600 15004KT P6SM VCSH BKN100 WS020/20040KT
     FM241400 20007KT P6SM BKN070
     FM250100 22007KT P6SM BKN035=

USA.gov is the U.S. government's official web portal to all federal, state and local government web resources and services.